x

Pt Arena - 19nm North Of Point Arena, Ca (46014) Wave Buoy

3:50am - Sat 26th Jul 2014 All times are PDT. -7 hours from GMT.

  • Sig Wave height 6.9ft
  • Peak Period 7s
  • Average Period 6s
  • Wind
    18mph, 22mph gusts
  • Sea Temp 55°f
  • Air Temp 55°f
  • Sea Pressure 1013.4mb
  • Pt Arena - 19nm North Of Point Arena, Ca
  • Pt Arena - 19nm North Of Point Arena, Ca

More Historic Weather Station data

Upgrade to MSW Pro to gain access to the past 30 days of data for over 8000 Wavebouys and Weather Stations around the globe.

Join Pro

Comparision Forecast

View Surf forecast
   
Sat 07/26 3:50am 7ft 7s 6s 18 22 mph 1013.4mb 55f 55f
2:50am  -   -   -  18 22 mph 1013.3mb 55f 55f
1:50am 7.5ft 8s 6s 18 20 mph 1013.6mb 56f 56f
12:50am 8ft 8s 6s 20 27 mph 1013.4mb 56f 56f
Fri 07/25 11:50pm 8ft 8s 6s 25 31 mph 1012.9mb 56f 56f
10:50pm 8ft 8s 6s 20 25 mph 1013.4mb 56f 56f
9:50pm 10ft 8s 6s 18 22 mph 1013.6mb 56f 57f
8:50pm 9ft 8s 6s 20 25 mph 1013mb 56f 57f
7:50pm  -   -   -  22
mph
1012.6mb - 58f
6:50pm 8.5ft 8s 6s 18 20 mph 1012.9mb 56f 58f
5:50pm 9ft 8s 7s 11 13 mph 1013.4mb 56f 58f
4:50pm 8ft 9s 6s 13 16 mph 1013.6mb 56f 57f
3:50pm 8ft 9s 7s 13 16 mph 1013.8mb 55f 56f
2:50pm 7.5ft 9s 6s 16 18 mph 1014mb 55f 56f
1:50pm 7.5ft 9s 6s 16 20 mph 1014.1mb 55f 56f
12:50pm 8.5ft 9s 7s 20 25 mph 1013.5mb 55f 56f
11:50am 8.5ft 9s 7s 16 20 mph 1013.7mb 55f 55f
10:50am 8ft 9s 6s 18 20 mph 1013.5mb 55f 55f
9:50am 9ft 8s 7s 16 20 mph 1013.4mb 55f 55f
8:50am 9ft 9s 7s 16 18 mph 1013.2mb 55f 55f
7:50am 10ft 9s 6s 18 22 mph 1013mb 55f 55f
6:50am 9.5ft 9s 7s 20 25 mph 1012.6mb 55f 55f
5:50am 8.5ft 9s 6s 18 22 mph 1012.3mb 55f 55f
4:50am 9.5ft 9s 7s 16 20 mph 1012.4mb 55f 55f
3:50am 9ft 9s 6s 18 20 mph 1012.3mb 55f 56f
2:50am  -   -   -  18 22 mph 1012.5mb 56f 56f
1:50am 8ft 8s 6s 20 27 mph 1012.5mb 56f 57f
12:50am 8.5ft 8s 6s 25 31 mph 1012.2mb 56f 57f
Thu 07/24 11:50pm 8.5ft 8s 6s 25 31 mph 1012.2mb 56f 57f
10:50pm 8.5ft 8s 6s 25 29 mph 1012.4mb 56f 57f
9:50pm 9.5ft 8s 6s 27 31 mph 1012.4mb 57f 58f
8:50pm  -   -   -  27
mph
1012.2mb 57f 58f
7:50pm 10ft 8s 6s 18 22 mph 1012.9mb 57f 58f
6:50pm  -   -   -  18 22 mph 1013mb 57f 58f
5:50pm 8.5ft 8s 6s 20 25 mph 1013.6mb 57f 58f
4:50pm 8ft 8s 6s 20 27 mph 1014.3mb 57f 58f
3:50pm 9ft 7s 6s 18 20 mph 1015mb 57f 58f
2:50pm 8ft 8s 6s 20 25 mph 1015.6mb 57f 58f
1:50pm 7ft 7s 6s 20 22 mph 1016.5mb 58f 58f
12:50pm 7ft 7s 6s 22 27 mph 1016.9mb 58f 58f
11:50am 7.5ft 7s 6s 25 29 mph 1017.3mb 58f 58f
10:50am 7ft 7s 6s 25 29 mph 1018mb 58f 58f
9:50am 6.5ft 7s 6s 22 29 mph 1018.2mb 58f 58f
8:50am 6.5ft 8s 6s 22 29 mph 1018.4mb 58f 58f
7:50am 7ft 7s 6s 25 29 mph 1018.2mb 58f 58f
6:50am 6ft 7s 5s 25 29 mph 1018.1mb 58f 58f
5:50am 7ft 6s 5s 25 29 mph 1018.2mb 58f 58f
4:50am 6ft 7s 5s 27 31 mph 1017.8mb 58f 58f
3:50am 6ft 6s 5s 25 29 mph 1018mb 58f 58f
2:50am 6ft 6s 5s 25 31 mph 1018.5mb 58f 59f
1:50am 6ft 6s 5s 22 25 mph 1018.9mb 58f 58f
12:50am 5.5ft 6s 5s 18 20 mph 1019.4mb 58f 58f
Wed 07/23 11:50pm 5ft 6s 5s 16 18 mph 1019.4mb 58f 58f
10:50pm 4.5ft 5s 5s 16 20 mph 1019.8mb 59f 59f
9:50pm 3.5ft 4s 5s 18 20 mph 1020.2mb 59f 59f
8:50pm 3ft 9s 5s 13 18 mph 1020.1mb 60f 59f
7:50pm 3ft 10s 5s 11 16 mph 1020.2mb 60f 59f
6:50pm 3ft 10s 5s 13 16 mph 1020.6mb 60f 60f
5:50pm 2.5ft 10s 6s 13 18 mph 1020.9mb 60f 60f
4:50pm 2.5ft 11s 7s 13 16 mph 1021.4mb 60f 60f
3:50pm 2.5ft 10s 7s 9
mph
1021.9mb 60f 60f
2:50pm 2.5ft 10s 7s 13 16 mph 1022.1mb 60f 60f
1:50pm 2.5ft 8s 8s 11 13 mph 1022mb 60f 61f
12:50pm 2.5ft 10s 8s 9 11 mph 1022mb 61f 61f
11:50am 2.5ft 10s 7s 7
mph
1022mb 62f 61f
10:50am 2.5ft 10s 7s 4
mph
1021.7mb 61f 60f
9:50am 2.5ft 8s 8s  -  mph 1021.2mb 60f 62f
8:50am 2.5ft 11s 8s  -  mph 1021mb 60f 61f
7:50am 2.5ft 9s 8s  -  mph 1020.4mb 60f 60f
6:50am 3ft 10s 8s 2
mph
1020mb 60f 60f
5:50am 2.5ft 9s 8s 4
mph
1019.4mb 60f 60f
4:50am 2.5ft 11s 8s 4
mph
1019.4mb 60f 60f
3:50am 2.5ft 9s 8s 2 4 mph 1019.3mb 60f 60f
2:50am 2.5ft 9s 8s 4
mph
1019.3mb 60f 60f
1:50am 2.5ft 11s 8s 4
mph
1019.4mb 60f 60f
12:50am 3.5ft 10s 8s 4 7 mph 1019.5mb 60f 60f
Tue 07/22 11:50pm  -   -   -  4
mph
- - 60f
9:50pm  -   -   -   -  mph 1019.3mb 61f 60f
8:50pm 3.5ft 10s 8s 4
mph
1019.1mb 61f 61f
7:50pm 3ft 10s 8s 9 11 mph 1018.5mb 61f 61f
6:50pm  -   -   -  4
mph
1018.6mb 60f 61f
5:50pm  -   -   -  4
mph
1018.8mb 61f 61f
4:50pm 3ft 10s 8s 4
mph
1018.9mb 61f 61f
3:50pm 3ft 10s 8s 2 4 mph 1019.2mb 61f 62f
2:50pm 3.5ft 11s 8s 7
mph
1019.4mb 61f 61f
1:50pm 3.5ft 11s 8s 7
mph
1019.3mb 60f 61f
12:50pm 3.5ft 11s 8s 7 9 mph 1019.3mb 60f 61f